createdAt,value
2022-11-21T00:00:34.834Z,23.36
2022-11-21T00:01:34.941Z,23.31
2022-11-21T00:02:34.813Z,23.26
2022-11-21T00:03:34.799Z,23.47
2022-11-21T00:04:34.786Z,23.15
2022-11-21T00:05:34.766Z,23.31
2022-11-21T00:06:34.751Z,23.26
2022-11-21T00:07:34.794Z,23.58
2022-11-21T00:08:34.733Z,23.26
2022-11-21T00:09:34.718Z,23.31
2022-11-21T00:10:34.707Z,23.31
2022-11-21T00:11:34.691Z,23.47
2022-11-21T00:12:34.676Z,23.31
2022-11-21T00:13:34.663Z,23.36
2022-11-21T00:14:34.653Z,23.31
2022-11-21T00:15:34.637Z,23.42
2022-11-21T00:16:34.622Z,23.36
2022-11-21T00:17:34.602Z,23.31
2022-11-21T00:18:34.596Z,23.26
2022-11-21T00:19:34.582Z,23.26
2022-11-21T00:20:34.569Z,23.53
2022-11-21T00:21:34.553Z,23.31
2022-11-21T00:22:34.545Z,23.36
2022-11-21T00:23:34.539Z,23.26
2022-11-21T00:24:34.513Z,23.31
2022-11-21T00:25:34.499Z,23.26
2022-11-21T00:26:34.480Z,23.31
2022-11-21T00:27:34.467Z,23.26
2022-11-21T00:28:34.457Z,23.26
2022-11-21T00:29:34.440Z,23.26
2022-11-21T00:30:34.431Z,23.36
2022-11-21T00:31:34.422Z,23.26
2022-11-21T00:32:34.411Z,23.26
2022-11-21T00:33:34.395Z,23.36
2022-11-21T00:34:34.380Z,23.26
2022-11-21T00:35:34.368Z,22.77
2022-11-21T00:36:34.351Z,23.26
2022-11-21T00:37:34.335Z,23.26
2022-11-21T00:38:34.329Z,23.47
2022-11-21T00:39:34.305Z,23.36
2022-11-21T00:40:34.295Z,23.31
2022-11-21T00:41:34.283Z,23.31
2022-11-21T00:42:34.267Z,23.58
2022-11-21T00:43:34.259Z,23.26
2022-11-21T00:44:34.241Z,23.36
2022-11-21T00:45:34.275Z,23.31
2022-11-21T00:46:34.217Z,23.36
2022-11-21T00:47:34.208Z,23.36
2022-11-21T00:48:34.192Z,23.31
2022-11-21T00:49:34.174Z,23.31
2022-11-21T00:50:34.161Z,23.20
2022-11-21T00:51:34.142Z,23.26
2022-11-21T00:52:34.134Z,23.42
2022-11-21T00:53:34.171Z,23.26
2022-11-21T00:54:34.111Z,23.31
2022-11-21T00:55:34.097Z,23.26
2022-11-21T00:56:34.087Z,23.31
2022-11-21T00:57:34.070Z,23.26
2022-11-21T00:58:34.054Z,23.26
2022-11-21T00:59:34.041Z,23.26
2022-11-21T01:00:34.101Z,23.36
2022-11-21T01:01:34.016Z,23.47
2022-11-21T01:02:34.006Z,23.31
2022-11-21T01:03:33.981Z,23.26
2022-11-21T01:04:33.977Z,23.42
2022-11-21T01:05:33.954Z,23.20
2022-11-21T01:06:33.947Z,23.31
2022-11-21T01:07:33.971Z,23.31
2022-11-21T01:08:33.917Z,23.20
2022-11-21T01:09:33.902Z,23.36
2022-11-21T01:10:33.888Z,23.36
2022-11-21T01:11:33.879Z,23.26
2022-11-21T01:12:33.888Z,23.31
2022-11-21T01:13:33.849Z,23.42
2022-11-21T01:14:33.839Z,23.26
2022-11-21T01:15:33.829Z,23.26
2022-11-21T01:16:33.814Z,23.26
2022-11-21T01:17:33.799Z,23.26
2022-11-21T01:18:33.787Z,23.36
2022-11-21T01:19:33.773Z,23.47
2022-11-21T01:20:33.755Z,22.67
2022-11-21T01:21:33.742Z,23.31
2022-11-21T01:22:33.730Z,23.26
2022-11-21T01:23:33.715Z,23.26
2022-11-21T01:24:33.705Z,23.26
2022-11-21T01:25:33.688Z,23.31
2022-11-21T01:26:33.677Z,23.31
2022-11-21T01:27:33.660Z,23.36
2022-11-21T01:28:33.669Z,23.31
2022-11-21T01:29:33.636Z,23.31
2022-11-21T01:30:33.620Z,23.26
2022-11-21T01:31:33.604Z,22.72
2022-11-21T01:32:33.591Z,23.15
2022-11-21T01:33:33.582Z,23.26
2022-11-21T01:34:33.563Z,23.26
2022-11-21T01:35:33.558Z,23.26
2022-11-21T01:36:33.540Z,23.31
2022-11-21T01:37:33.533Z,23.31
2022-11-21T01:38:33.522Z,23.31
2022-11-21T01:39:33.503Z,23.42
2022-11-21T01:40:33.488Z,23.26
2022-11-21T01:41:33.484Z,23.31
2022-11-21T01:42:33.460Z,23.31
2022-11-21T01:43:33.444Z,23.36
2022-11-21T01:44:33.461Z,23.26
2022-11-21T01:45:33.417Z,23.26
2022-11-21T01:46:33.409Z,23.31
2022-11-21T01:47:33.393Z,23.26
2022-11-21T01:48:33.380Z,23.31
2022-11-21T01:49:33.363Z,23.42
2022-11-21T01:50:33.350Z,23.36
2022-11-21T01:51:33.338Z,23.20
2022-11-21T01:52:33.331Z,23.31
2022-11-21T01:53:33.312Z,23.26
2022-11-21T01:54:33.300Z,23.31
2022-11-21T01:55:33.281Z,23.20
2022-11-21T01:56:33.267Z,23.36
2022-11-21T01:57:33.250Z,23.31
2022-11-21T01:58:33.245Z,23.20
2022-11-21T01:59:33.232Z,23.26
2022-11-21T02:00:33.245Z,23.47
2022-11-21T02:01:33.208Z,23.26
2022-11-21T02:02:33.190Z,23.26
2022-11-21T02:03:33.178Z,23.47
2022-11-21T02:04:33.163Z,23.42
2022-11-21T02:05:33.149Z,23.42
2022-11-21T02:06:33.140Z,23.26
2022-11-21T02:07:33.163Z,23.31
2022-11-21T02:08:33.106Z,23.31
2022-11-21T02:09:33.093Z,23.31
2022-11-21T02:10:33.079Z,23.20
2022-11-21T02:11:33.067Z,23.26
2022-11-21T02:12:33.058Z,23.26
2022-11-21T02:13:33.039Z,23.31
2022-11-21T02:14:33.028Z,23.31
2022-11-21T02:15:33.015Z,23.42
2022-11-21T02:16:33.022Z,23.26
2022-11-21T02:17:32.989Z,23.26
2022-11-21T02:18:32.980Z,23.69
2022-11-21T02:19:32.957Z,23.69
2022-11-21T02:20:32.951Z,23.63
2022-11-21T02:21:32.935Z,23.63
2022-11-21T02:22:32.921Z,23.63
2022-11-21T02:23:32.906Z,23.53
2022-11-21T02:24:32.891Z,23.69
2022-11-21T02:25:32.901Z,23.69
2022-11-21T02:26:32.864Z,23.69
2022-11-21T02:27:32.850Z,24.28
2022-11-21T02:28:32.843Z,23.63
2022-11-21T02:29:32.825Z,24.06
2022-11-21T02:30:32.823Z,23.69
2022-11-21T02:31:32.792Z,24.06
2022-11-21T02:32:32.802Z,24.28
2022-11-21T02:33:32.765Z,23.74
2022-11-21T02:34:32.799Z,24.12
2022-11-21T02:35:32.738Z,24.12
2022-11-21T02:36:32.732Z,24.12
2022-11-21T02:37:32.712Z,24.12
2022-11-21T02:38:32.699Z,24.12
2022-11-21T02:39:32.686Z,24.17
2022-11-21T02:40:32.679Z,24.01
2022-11-21T02:41:32.662Z,24.06
2022-11-21T02:42:32.647Z,24.06
2022-11-21T02:43:32.643Z,24.06
2022-11-21T02:44:32.619Z,24.12
2022-11-21T02:45:32.609Z,24.28
2022-11-21T02:46:32.598Z,24.49
2022-11-21T02:47:32.579Z,24.12
2022-11-21T02:48:32.584Z,24.65
2022-11-21T02:49:32.549Z,24.06
2022-11-21T02:50:32.538Z,24.06
2022-11-21T02:51:32.524Z,24.01
2022-11-21T02:52:32.510Z,24.65
2022-11-21T02:53:32.494Z,24.65
2022-11-21T02:54:32.485Z,24.12
2022-11-21T02:55:32.469Z,24.65
2022-11-21T02:56:32.459Z,24.71
2022-11-21T02:57:32.446Z,24.71
2022-11-21T02:58:32.439Z,24.17
2022-11-21T02:59:32.411Z,24.12
2022-11-21T03:00:32.402Z,24.65
2022-11-21T03:01:32.417Z,24.65
2022-11-21T03:02:32.375Z,24.65
2022-11-21T03:03:32.512Z,24.60
2022-11-21T03:04:32.377Z,24.06
2022-11-21T03:05:32.338Z,24.71
2022-11-21T03:06:32.323Z,24.81
2022-11-21T03:07:32.388Z,24.12
2022-11-21T03:08:32.296Z,24.01
2022-11-21T03:09:32.284Z,24.65
2022-11-21T03:10:32.271Z,24.17
2022-11-21T03:11:32.253Z,24.01
2022-11-21T03:12:32.241Z,24.12
2022-11-21T03:13:32.221Z,24.71
2022-11-21T03:14:32.211Z,24.12
2022-11-21T03:15:32.198Z,24.12
2022-11-21T03:16:32.182Z,24.17
2022-11-21T03:17:32.171Z,24.33
2022-11-21T03:18:32.163Z,24.44
2022-11-21T03:19:32.146Z,24.12
2022-11-21T03:20:32.154Z,24.12
2022-11-21T03:21:32.122Z,24.01
2022-11-21T03:22:34.155Z,24.12
2022-11-21T03:23:32.089Z,24.12
2022-11-21T03:24:32.078Z,24.17
2022-11-21T03:25:32.066Z,24.12
2022-11-21T03:26:32.054Z,24.12
2022-11-21T03:27:32.039Z,23.96
2022-11-21T03:28:32.026Z,24.12
2022-11-21T03:29:32.014Z,24.01
2022-11-21T03:30:31.995Z,24.71
2022-11-21T03:31:31.984Z,24.06
2022-11-21T03:32:31.974Z,23.96
2022-11-21T03:33:31.964Z,24.17
2022-11-21T03:34:31.946Z,24.01
2022-11-21T03:35:31.929Z,24.01
2022-11-21T03:36:31.937Z,24.12
2022-11-21T03:37:31.903Z,24.06
2022-11-21T03:38:31.894Z,24.12
2022-11-21T03:39:31.873Z,23.96
2022-11-21T03:40:31.859Z,24.12
2022-11-21T03:41:31.845Z,24.17
2022-11-21T03:42:31.833Z,24.17
2022-11-21T03:43:31.825Z,24.12
2022-11-21T03:44:31.805Z,24.12
2022-11-21T03:45:31.793Z,24.01
2022-11-21T03:46:31.779Z,24.06
2022-11-21T03:47:31.769Z,24.12
2022-11-21T03:48:31.753Z,24.12
2022-11-21T03:49:31.742Z,24.01
2022-11-21T03:50:31.724Z,23.96
2022-11-21T03:51:31.707Z,24.01
2022-11-21T03:52:31.718Z,24.28
2022-11-21T03:53:31.687Z,24.12
2022-11-21T03:54:31.669Z,24.17
2022-11-21T03:55:31.653Z,24.06
2022-11-21T03:56:31.641Z,24.17
2022-11-21T03:57:31.626Z,24.06
2022-11-21T03:58:31.619Z,24.22
2022-11-21T03:59:31.610Z,24.17
2022-11-21T04:00:31.589Z,24.06
2022-11-21T04:01:36.372Z,24.06
2022-11-21T04:02:31.559Z,24.12
2022-11-21T04:03:31.550Z,24.06
2022-11-21T04:04:31.529Z,24.06
2022-11-21T04:05:31.525Z,24.06
2022-11-21T04:06:31.510Z,24.06
2022-11-21T04:07:31.597Z,24.06
2022-11-21T04:08:31.507Z,24.12
2022-11-21T04:09:31.476Z,24.06
2022-11-21T04:10:31.451Z,24.12
2022-11-21T04:11:31.447Z,24.17
2022-11-21T04:12:31.428Z,24.17
2022-11-21T04:13:31.415Z,24.01
2022-11-21T04:14:31.397Z,24.38
2022-11-21T04:15:31.390Z,23.69
2022-11-21T04:16:31.369Z,24.17
2022-11-21T04:17:31.360Z,24.06
2022-11-21T04:18:31.348Z,24.12
2022-11-21T04:19:31.337Z,24.17
2022-11-21T04:20:31.320Z,24.12
2022-11-21T04:21:31.305Z,24.06
2022-11-21T04:22:31.301Z,24.12
2022-11-21T04:23:31.284Z,24.12
2022-11-21T04:24:31.443Z,23.69
2022-11-21T04:25:31.257Z,24.28
2022-11-21T04:26:31.238Z,24.12
2022-11-21T04:27:31.238Z,24.06
2022-11-21T04:28:31.218Z,24.01
2022-11-21T04:29:31.204Z,23.69
2022-11-21T04:30:31.186Z,24.12
2022-11-21T04:31:31.175Z,24.06
2022-11-21T04:32:31.155Z,23.58
2022-11-21T04:33:31.143Z,24.01
2022-11-21T04:34:31.261Z,24.33
2022-11-21T04:35:31.117Z,24.06
2022-11-21T04:36:31.214Z,23.96
2022-11-21T04:37:31.091Z,24.01
2022-11-21T04:38:31.084Z,24.12
2022-11-21T04:39:31.067Z,24.28
2022-11-21T04:40:31.078Z,24.06
2022-11-21T04:41:31.041Z,24.06
2022-11-21T04:42:31.025Z,24.06
2022-11-21T04:43:31.010Z,24.12
2022-11-21T04:44:31.056Z,24.12
2022-11-21T04:45:30.987Z,23.74
2022-11-21T04:46:30.969Z,24.12
2022-11-21T04:47:30.959Z,23.58
2022-11-21T04:48:30.941Z,24.06
2022-11-21T04:49:30.929Z,24.01
2022-11-21T04:50:30.916Z,23.63
2022-11-21T04:51:30.897Z,24.06
2022-11-21T04:52:30.884Z,24.06
2022-11-21T04:53:30.872Z,24.12
2022-11-21T04:54:31.275Z,24.06
2022-11-21T04:55:30.848Z,23.42
2022-11-21T04:56:30.859Z,24.22
2022-11-21T04:57:30.828Z,24.06
2022-11-21T04:58:30.807Z,24.22
2022-11-21T04:59:30.798Z,23.63
2022-11-21T05:00:30.787Z,24.06
2022-11-21T05:01:30.792Z,23.69
2022-11-21T05:02:30.752Z,24.06
2022-11-21T05:03:30.738Z,24.22
2022-11-21T05:04:30.724Z,24.12
2022-11-21T05:05:30.707Z,24.06
2022-11-21T05:06:30.697Z,24.12
2022-11-21T05:07:30.757Z,24.28
2022-11-21T05:08:30.671Z,23.74
2022-11-21T05:09:30.656Z,23.53
2022-11-21T05:10:30.647Z,23.69
2022-11-21T05:11:30.635Z,23.69
2022-11-21T05:12:30.638Z,24.17
2022-11-21T05:13:30.604Z,24.06
2022-11-21T05:14:30.671Z,23.63
2022-11-21T05:15:30.581Z,24.17
2022-11-21T05:16:30.564Z,23.74
2022-11-21T05:17:30.549Z,23.74
2022-11-21T05:18:30.529Z,24.12
2022-11-21T05:19:30.522Z,23.69
2022-11-21T05:20:33.335Z,24.33
2022-11-21T05:21:31.509Z,23.69
2022-11-21T05:22:30.473Z,23.79
2022-11-21T05:23:30.464Z,23.58
2022-11-21T05:24:30.719Z,23.69
2022-11-21T05:25:30.437Z,24.01
2022-11-21T05:26:30.420Z,23.69
2022-11-21T05:27:30.416Z,23.69
2022-11-21T05:28:30.420Z,24.12
2022-11-21T05:29:30.386Z,24.06
2022-11-21T05:30:30.367Z,23.96
2022-11-21T05:31:30.351Z,23.63
2022-11-21T05:32:30.342Z,23.58
2022-11-21T05:33:30.330Z,23.53
2022-11-21T05:34:30.744Z,23.69
2022-11-21T05:35:30.302Z,24.06
2022-11-21T05:36:30.286Z,23.74
2022-11-21T05:37:30.271Z,23.63
2022-11-21T05:38:30.255Z,23.69
2022-11-21T05:39:30.238Z,23.58
2022-11-21T05:40:30.232Z,23.74
2022-11-21T05:41:30.218Z,24.01
2022-11-21T05:42:30.205Z,23.74
2022-11-21T05:43:30.190Z,24.01
2022-11-21T05:44:30.733Z,23.69
2022-11-21T05:45:30.159Z,24.12
2022-11-21T05:46:30.148Z,23.63
2022-11-21T05:47:30.140Z,24.01
2022-11-21T05:48:30.119Z,23.69
2022-11-21T05:49:30.105Z,23.69
2022-11-21T05:50:30.086Z,23.69
2022-11-21T05:51:30.077Z,23.69
2022-11-21T05:52:30.066Z,23.63
2022-11-21T05:53:30.053Z,23.69
2022-11-21T05:54:30.420Z,23.63
2022-11-21T05:55:30.025Z,23.69
2022-11-21T05:56:30.005Z,23.63
2022-11-21T05:57:29.996Z,23.63
2022-11-21T05:58:29.984Z,23.79
2022-11-21T05:59:29.966Z,23.69
2022-11-21T06:00:29.976Z,24.01
2022-11-21T06:01:29.946Z,23.58
2022-11-21T06:02:29.927Z,23.58
2022-11-21T06:03:29.917Z,23.69
2022-11-21T06:04:30.257Z,23.69
2022-11-21T06:05:29.885Z,23.69
2022-11-21T06:06:29.867Z,24.12
2022-11-21T06:07:29.887Z,23.63
2022-11-21T06:08:29.838Z,23.69
2022-11-21T06:09:29.826Z,23.85
2022-11-21T06:10:29.819Z,23.63
2022-11-21T06:11:29.802Z,23.79
2022-11-21T06:12:29.787Z,23.85
2022-11-21T06:13:29.778Z,24.06
2022-11-21T06:14:30.046Z,24.28
2022-11-21T06:15:29.746Z,23.74
2022-11-21T06:16:29.750Z,23.58
2022-11-21T06:17:29.719Z,23.63
2022-11-21T06:18:29.699Z,24.01
2022-11-21T06:19:29.694Z,23.69
2022-11-21T06:20:29.675Z,23.69
2022-11-21T06:21:29.660Z,23.63
2022-11-21T06:22:29.651Z,23.69
2022-11-21T06:23:29.640Z,24.01
2022-11-21T06:24:29.841Z,23.85
2022-11-21T06:25:29.613Z,23.74
2022-11-21T06:26:29.599Z,23.69
2022-11-21T06:27:29.582Z,23.69
2022-11-21T06:28:29.567Z,24.06
2022-11-21T06:29:29.557Z,24.06
2022-11-21T06:30:29.539Z,23.63
2022-11-21T06:31:29.547Z,23.69
2022-11-21T06:32:29.693Z,24.06
2022-11-21T06:33:29.503Z,23.69
2022-11-21T06:34:29.934Z,23.63
2022-11-21T06:35:29.466Z,23.69
2022-11-21T06:36:29.454Z,23.69
2022-11-21T06:37:29.442Z,23.69
2022-11-21T06:38:29.433Z,23.63
2022-11-21T06:39:29.422Z,24.06
2022-11-21T06:40:29.406Z,23.74
2022-11-21T06:41:29.390Z,23.69
2022-11-21T06:42:29.370Z,23.63
2022-11-21T06:43:29.360Z,23.58
2022-11-21T06:44:29.723Z,24.12
2022-11-21T06:45:29.335Z,23.58
2022-11-21T06:46:29.324Z,24.22
2022-11-21T06:47:29.313Z,23.69
2022-11-21T06:48:29.316Z,23.58
2022-11-21T06:49:29.291Z,23.69
2022-11-21T06:50:29.271Z,23.79
2022-11-21T06:51:29.253Z,23.63
2022-11-21T06:52:29.238Z,23.74
2022-11-21T06:53:29.225Z,23.63
2022-11-21T06:54:29.686Z,23.53
2022-11-21T06:55:29.199Z,23.85
2022-11-21T06:56:29.183Z,23.63
2022-11-21T06:57:29.169Z,23.79
2022-11-21T06:58:29.158Z,23.63
2022-11-21T06:59:29.144Z,23.69
2022-11-21T07:00:29.128Z,23.74
2022-11-21T07:01:29.251Z,23.69
2022-11-21T07:02:29.106Z,23.69
2022-11-21T07:03:29.094Z,23.69
2022-11-21T07:04:29.497Z,23.58
2022-11-21T07:05:29.068Z,23.47
2022-11-21T07:06:29.053Z,23.69
2022-11-21T07:07:29.122Z,23.69
2022-11-21T07:08:29.025Z,23.85
2022-11-21T07:09:33.996Z,23.63
2022-11-21T07:10:28.997Z,23.69
2022-11-21T07:11:28.984Z,23.63
2022-11-21T07:12:28.969Z,23.74
2022-11-21T07:13:28.951Z,24.06
2022-11-21T07:14:28.941Z,23.69
2022-11-21T07:15:28.934Z,23.53
2022-11-21T07:16:28.918Z,23.63
2022-11-21T07:17:28.904Z,23.69
2022-11-21T07:18:28.887Z,23.69
2022-11-21T07:19:29.218Z,23.90
2022-11-21T07:20:28.925Z,23.85
2022-11-21T07:21:28.847Z,23.63
2022-11-21T07:22:28.833Z,23.69
2022-11-21T07:23:28.825Z,24.12
2022-11-21T07:24:28.804Z,23.69
2022-11-21T07:25:33.825Z,23.58
2022-11-21T07:26:29.815Z,23.63
2022-11-21T07:27:28.789Z,23.79
2022-11-21T07:28:28.756Z,23.69
2022-11-21T07:29:29.286Z,23.69
2022-11-21T07:30:28.769Z,23.90
2022-11-21T07:31:28.719Z,23.74
2022-11-21T07:32:28.708Z,23.69
2022-11-21T07:33:28.686Z,23.79
2022-11-21T07:34:28.672Z,23.63
2022-11-21T07:35:28.659Z,23.69
2022-11-21T07:36:32.337Z,23.74
2022-11-21T07:37:28.635Z,23.69
2022-11-21T07:38:28.620Z,23.79
2022-11-21T07:39:29.003Z,23.69
2022-11-21T07:40:28.659Z,23.53
2022-11-21T07:41:28.577Z,23.69
2022-11-21T07:42:28.569Z,23.36
2022-11-21T07:43:28.553Z,23.74
2022-11-21T07:44:28.536Z,23.58
2022-11-21T07:45:28.527Z,23.69
2022-11-21T07:46:28.516Z,23.85
2022-11-21T07:47:28.500Z,23.79
2022-11-21T07:48:28.491Z,23.63
2022-11-21T07:49:28.802Z,23.69
2022-11-21T07:50:28.460Z,23.47
2022-11-21T07:51:28.445Z,23.85
2022-11-21T07:52:28.459Z,23.74
2022-11-21T07:53:28.416Z,23.63
2022-11-21T07:54:28.410Z,23.63
2022-11-21T07:55:28.387Z,23.74
2022-11-21T07:56:28.372Z,23.69
2022-11-21T07:57:28.359Z,23.63
2022-11-21T07:58:28.362Z,23.74
2022-11-21T07:59:28.584Z,23.96
2022-11-21T08:00:28.325Z,23.96
2022-11-21T08:01:28.380Z,23.85
2022-11-21T08:02:28.305Z,23.69
2022-11-21T08:03:28.282Z,23.79
2022-11-21T08:04:28.270Z,23.63
2022-11-21T08:05:28.260Z,23.69
2022-11-21T08:06:28.239Z,23.69
2022-11-21T08:07:28.280Z,23.69
2022-11-21T08:08:28.236Z,23.63
2022-11-21T08:09:28.315Z,24.01
2022-11-21T08:10:28.293Z,23.69
2022-11-21T08:11:28.170Z,23.63
2022-11-21T08:12:28.160Z,23.69
2022-11-21T08:13:28.140Z,23.63
2022-11-21T08:14:28.134Z,23.85
2022-11-21T08:15:28.117Z,23.85
2022-11-21T08:16:28.257Z,23.69
2022-11-21T08:17:28.109Z,23.79
2022-11-21T08:18:28.076Z,23.69
2022-11-21T08:19:28.278Z,23.74
2022-11-21T08:20:28.048Z,23.69
2022-11-21T08:21:28.036Z,23.69
2022-11-21T08:22:28.025Z,23.69
2022-11-21T08:23:28.013Z,23.63
2022-11-21T08:24:28.023Z,23.63
2022-11-21T08:25:27.986Z,23.96
2022-11-21T08:26:27.974Z,23.63
2022-11-21T08:27:27.962Z,23.69
2022-11-21T08:28:27.944Z,23.79
2022-11-21T08:29:28.365Z,23.69
2022-11-21T08:30:27.915Z,23.63
2022-11-21T08:31:27.898Z,23.63
2022-11-21T08:32:27.889Z,23.63
2022-11-21T08:33:27.876Z,24.01
2022-11-21T08:34:27.863Z,23.69
2022-11-21T08:35:27.846Z,23.63
2022-11-21T08:36:27.837Z,23.69
2022-11-21T08:37:27.817Z,23.63
2022-11-21T08:38:27.813Z,23.69
2022-11-21T08:39:28.132Z,23.69
2022-11-21T08:40:27.815Z,23.63
2022-11-21T08:41:27.766Z,23.63
2022-11-21T08:42:27.755Z,23.69
2022-11-21T08:43:27.738Z,23.90
2022-11-21T08:44:28.063Z,23.58
2022-11-21T08:45:27.715Z,23.69
2022-11-21T08:46:27.699Z,23.69
2022-11-21T08:47:27.682Z,23.58
2022-11-21T08:48:27.665Z,23.63
2022-11-21T08:49:27.653Z,23.63
2022-11-21T08:50:27.647Z,23.63
2022-11-21T08:51:27.636Z,23.63
2022-11-21T08:52:27.615Z,23.69
2022-11-21T08:53:27.600Z,23.69
2022-11-21T08:54:27.826Z,23.74
2022-11-21T08:55:27.573Z,23.79
2022-11-21T08:56:27.576Z,23.63
2022-11-21T08:57:27.540Z,23.69
2022-11-21T08:58:27.527Z,23.63
2022-11-21T08:59:27.513Z,23.74
2022-11-21T09:00:27.499Z,23.69
2022-11-21T09:01:27.550Z,23.69
2022-11-21T09:02:27.491Z,23.36
2022-11-21T09:03:30.822Z,23.69
2022-11-21T09:04:27.708Z,23.69
2022-11-21T09:05:27.451Z,23.63
2022-11-21T09:06:27.422Z,23.74
2022-11-21T09:07:27.534Z,23.74
2022-11-21T09:08:27.596Z,23.69
2022-11-21T09:09:27.385Z,23.69
2022-11-21T09:10:27.363Z,23.26
2022-11-21T09:11:27.349Z,23.74
2022-11-21T09:12:27.365Z,23.63
2022-11-21T09:13:27.328Z,23.63
2022-11-21T09:14:27.567Z,23.63
2022-11-21T09:15:27.294Z,23.63
2022-11-21T09:16:27.279Z,23.79
2022-11-21T09:17:27.270Z,23.69
2022-11-21T09:18:27.259Z,23.36
2022-11-21T09:19:27.498Z,23.74
2022-11-21T09:20:27.329Z,23.63
2022-11-21T09:21:27.216Z,23.69
2022-11-21T09:22:27.199Z,23.58
2022-11-21T09:23:27.188Z,23.58
2022-11-21T09:24:27.170Z,23.63
2022-11-21T09:25:27.157Z,23.69
2022-11-21T09:26:27.180Z,23.69
2022-11-21T09:27:27.136Z,23.63
2022-11-21T09:28:27.222Z,23.63
2022-11-21T09:29:27.508Z,23.79
2022-11-21T09:30:27.096Z,23.85
2022-11-21T09:31:27.078Z,23.69
2022-11-21T09:32:27.065Z,23.74
2022-11-21T09:33:27.064Z,23.42
2022-11-21T09:34:27.328Z,23.79
2022-11-21T09:35:27.023Z,23.79
2022-11-21T09:36:27.009Z,23.69
2022-11-21T09:37:26.993Z,23.69
2022-11-21T09:38:26.987Z,23.36
2022-11-21T09:39:27.394Z,23.74
2022-11-21T09:40:26.952Z,23.74
2022-11-21T09:41:26.936Z,23.74
2022-11-21T09:42:26.930Z,23.79
2022-11-21T09:43:26.922Z,23.69
2022-11-21T09:44:27.297Z,23.74
2022-11-21T09:45:26.888Z,23.74
2022-11-21T09:46:26.874Z,23.26
2022-11-21T09:47:26.857Z,23.74
2022-11-21T09:48:26.853Z,23.63
2022-11-21T09:49:27.303Z,23.63
2022-11-21T09:50:26.816Z,23.69
2022-11-21T09:51:27.003Z,23.96
2022-11-21T09:52:26.796Z,23.36
2022-11-21T09:53:26.778Z,23.74
2022-11-21T09:54:27.198Z,23.69
2022-11-21T09:55:26.753Z,23.69
2022-11-21T09:56:26.736Z,23.74
2022-11-21T09:57:29.550Z,23.63
2022-11-21T09:58:27.737Z,23.63
2022-11-21T09:59:26.694Z,23.74
2022-11-21T10:00:26.816Z,23.31
2022-11-21T10:01:26.767Z,23.20
2022-11-21T10:02:26.655Z,23.31
2022-11-21T10:03:26.645Z,23.69
2022-11-21T10:04:27.049Z,23.63
2022-11-21T10:05:26.616Z,23.69
2022-11-21T10:06:26.599Z,23.63
2022-11-21T10:07:26.657Z,23.74
2022-11-21T10:08:26.572Z,23.79
2022-11-21T10:09:26.557Z,23.63
2022-11-21T10:10:26.547Z,23.74
2022-11-21T10:11:26.531Z,23.85
2022-11-21T10:12:26.518Z,23.69
2022-11-21T10:13:26.509Z,23.63
2022-11-21T10:14:26.891Z,23.42
2022-11-21T10:15:26.479Z,23.69
2022-11-21T10:16:26.493Z,23.31
2022-11-21T10:17:26.452Z,23.74
2022-11-21T10:18:26.439Z,23.26
2022-11-21T10:19:26.432Z,23.58
2022-11-21T10:20:26.414Z,23.74
2022-11-21T10:21:26.407Z,23.79
2022-11-21T10:22:26.382Z,23.31
2022-11-21T10:23:26.369Z,23.63
2022-11-21T10:24:26.681Z,23.47
2022-11-21T10:25:27.476Z,23.26
2022-11-21T10:26:26.323Z,23.69
2022-11-21T10:27:26.316Z,23.26
2022-11-21T10:28:26.308Z,23.31
2022-11-21T10:29:26.295Z,23.69
2022-11-21T10:30:26.282Z,23.74
2022-11-21T10:31:26.270Z,23.69
2022-11-21T10:32:26.274Z,23.69
2022-11-21T10:33:26.234Z,23.26
2022-11-21T10:34:26.500Z,23.36
2022-11-21T10:35:26.266Z,23.26
2022-11-21T10:36:26.194Z,23.26
2022-11-21T10:37:26.197Z,23.90
2022-11-21T10:38:26.170Z,23.36
2022-11-21T10:39:26.148Z,23.74
2022-11-21T10:40:26.146Z,23.31
2022-11-21T10:41:26.128Z,23.26
2022-11-21T10:42:26.113Z,23.31
2022-11-21T10:43:26.094Z,23.31
2022-11-21T10:44:26.533Z,23.26
2022-11-21T10:45:26.070Z,23.26
2022-11-21T10:46:26.058Z,23.31
2022-11-21T10:47:26.043Z,23.42
2022-11-21T10:48:26.056Z,23.31
2022-11-21T10:49:26.015Z,23.69
2022-11-21T10:50:26.006Z,23.26
2022-11-21T10:51:25.987Z,23.85
2022-11-21T10:52:25.979Z,23.31
2022-11-21T10:53:25.963Z,23.31
2022-11-21T10:54:26.149Z,23.26
2022-11-21T10:55:25.932Z,23.79
2022-11-21T10:56:25.972Z,23.15
2022-11-21T10:57:25.906Z,23.26
2022-11-21T10:58:25.892Z,23.42
2022-11-21T10:59:30.450Z,23.36
2022-11-21T11:00:25.866Z,23.15
2022-11-21T11:01:25.982Z,23.26
2022-11-21T11:02:25.852Z,23.36
2022-11-21T11:03:25.824Z,23.26
2022-11-21T11:04:44.132Z,23.36
2022-11-21T11:05:26.831Z,23.31
2022-11-21T11:06:25.785Z,23.31
2022-11-21T11:07:25.853Z,23.26
2022-11-21T11:08:25.762Z,23.31
2022-11-21T11:09:25.753Z,23.31
2022-11-21T11:10:28.085Z,23.20
2022-11-21T11:11:25.713Z,23.36
2022-11-21T11:12:25.705Z,23.31
2022-11-21T11:14:25.885Z,23.26
2022-11-21T11:15:25.661Z,23.36
2022-11-21T11:16:25.643Z,23.26
2022-11-21T11:17:25.632Z,23.26
2022-11-21T11:18:25.625Z,23.26
2022-11-21T11:19:33.963Z,23.26
2022-11-21T11:20:26.642Z,23.31
2022-11-21T11:21:25.588Z,23.31
2022-11-21T11:22:25.572Z,23.31
2022-11-21T11:23:25.583Z,23.26
2022-11-21T11:24:25.542Z,23.36
2022-11-21T11:25:25.525Z,23.26
2022-11-21T11:26:25.511Z,23.36
2022-11-21T11:27:25.499Z,23.26
2022-11-21T11:28:25.482Z,23.26
2022-11-21T11:29:25.564Z,23.31
2022-11-21T11:30:25.467Z,23.31
2022-11-21T11:31:25.447Z,23.26
2022-11-21T11:32:25.457Z,23.31
2022-11-21T11:33:25.424Z,23.26
2022-11-21T11:34:25.406Z,23.15
2022-11-21T11:35:25.390Z,23.36
2022-11-21T11:36:25.395Z,23.36
2022-11-21T11:37:25.408Z,23.26
2022-11-21T11:38:25.343Z,23.31
2022-11-21T11:39:25.560Z,23.31
2022-11-21T11:40:25.319Z,23.36
2022-11-21T11:41:25.305Z,23.26
2022-11-21T11:42:25.301Z,23.31
2022-11-21T11:43:25.282Z,23.31
2022-11-21T11:44:25.461Z,23.20
2022-11-21T11:45:25.253Z,23.26
2022-11-21T11:46:25.240Z,23.47
2022-11-21T11:47:25.229Z,23.36
2022-11-21T11:48:25.216Z,23.36
2022-11-21T11:49:25.199Z,23.31
2022-11-21T11:50:25.190Z,23.26
2022-11-21T11:51:25.171Z,23.31
2022-11-21T11:52:25.174Z,22.72
2022-11-21T11:53:25.143Z,23.31
2022-11-21T11:54:25.128Z,22.72
2022-11-21T11:55:25.116Z,23.42
2022-11-21T11:56:25.101Z,23.31
2022-11-21T11:57:25.088Z,23.20
2022-11-21T11:58:25.077Z,23.36
2022-11-21T11:59:25.214Z,23.42
2022-11-21T12:00:25.055Z,23.47
2022-11-21T12:01:25.038Z,22.72
2022-11-21T12:02:25.104Z,23.53
2022-11-21T12:03:25.007Z,23.36
2022-11-21T12:04:24.994Z,23.42
2022-11-21T12:05:24.982Z,23.36
2022-11-21T12:06:38.250Z,23.31
2022-11-21T12:08:42.303Z,23.36
2022-11-21T12:09:26.209Z,23.31
2022-11-21T12:10:24.915Z,23.36
2022-11-21T12:11:25.368Z,23.36
2022-11-21T12:12:24.886Z,23.31
2022-11-21T12:13:24.876Z,23.26
2022-11-21T12:14:24.856Z,23.31
2022-11-21T12:15:24.845Z,23.36
2022-11-21T12:16:24.828Z,23.36
2022-11-21T12:17:24.818Z,23.36
2022-11-21T12:18:24.801Z,23.26
2022-11-21T12:19:24.795Z,23.31
2022-11-21T12:20:24.776Z,23.36
2022-11-21T12:21:24.763Z,23.31
2022-11-21T12:22:24.751Z,23.36
2022-11-21T12:23:24.740Z,23.26
2022-11-21T12:24:24.750Z,23.26
2022-11-21T12:25:24.717Z,22.77
2022-11-21T12:26:24.695Z,23.15
2022-11-21T12:27:24.686Z,23.36
2022-11-21T12:28:24.670Z,23.26
2022-11-21T12:29:24.663Z,23.26
2022-11-21T12:30:24.639Z,23.36
2022-11-21T12:31:24.640Z,23.26
2022-11-21T12:32:24.614Z,23.31
2022-11-21T12:33:24.599Z,23.42
2022-11-21T12:34:24.735Z,23.36
2022-11-21T12:35:24.577Z,23.31
2022-11-21T12:36:24.559Z,22.72
2022-11-21T12:37:24.550Z,23.31
2022-11-21T12:38:24.527Z,22.72
2022-11-21T12:39:24.517Z,23.36
2022-11-21T12:40:24.524Z,23.31
2022-11-21T12:41:24.487Z,23.15
2022-11-21T12:42:24.473Z,23.31
2022-11-21T12:43:24.465Z,23.26
2022-11-21T12:44:24.449Z,23.26
2022-11-21T12:45:24.436Z,23.36
2022-11-21T12:46:24.423Z,22.67
2022-11-21T12:47:24.416Z,23.31
2022-11-21T12:48:24.398Z,22.67
2022-11-21T12:49:24.388Z,22.67
2022-11-21T12:50:24.375Z,23.36
2022-11-21T12:51:24.360Z,23.26
2022-11-21T12:52:24.343Z,23.26
2022-11-21T12:53:24.331Z,23.26
2022-11-21T12:54:24.312Z,23.53